Time;durP1;ratioP1;P1;durP2;ratioP2;P2;SDS_P1;SDS_P2;PMS_P1;PMS_P2;Temp;Humidity;BMP_temperature;BMP_pressure;BME280_temperature;BME280_humidity;BME280_pressure;Samples;Min_cycle;Max_cycle;Signal;HPM_P1;HPM_P2
2022/08/10 00:00:56;;;;;;;5.40;2.40;;;;;;;17.66;75.36;96948.78;5017925;28;20206;-69
2022/08/10 00:03:23;;;;;;;3.00;2.45;;;;;;;17.61;75.58;96943.22;5016269;28;20232;-69
2022/08/10 00:05:53;;;;;;;6.28;2.55;;;;;;;17.50;76.18;96945.69;5014885;28;20229;-69
2022/08/10 00:08:20;;;;;;;3.00;2.33;;;;;;;17.52;76.13;96952.44;5017674;28;20204;-69
2022/08/10 00:10:46;;;;;;;5.35;2.60;;;;;;;17.35;76.83;96953.84;5017918;28;20216;-69
2022/08/10 00:13:13;;;;;;;2.97;2.55;;;;;;;17.41;77.08;96953.06;5016965;28;20233;-69
2022/08/10 00:15:41;;;;;;;3.72;2.80;;;;;;;17.40;76.72;96951.41;5017386;28;20198;-69
2022/08/10 00:18:08;;;;;;;5.38;2.67;;;;;;;17.24;77.30;96948.25;5017777;28;20212;-69
2022/08/10 00:20:34;;;;;;;4.70;2.80;;;;;;;17.25;77.50;96944.59;5017070;28;20221;-69
2022/08/10 00:23:01;;;;;;;4.75;2.70;;;;;;;17.18;77.81;96944.56;5016554;28;20217;-70
2022/08/10 00:25:27;;;;;;;4.95;2.58;;;;;;;17.08;78.53;96948.59;5017174;28;21113;-69
2022/08/10 00:27:54;;;;;;;3.88;2.53;;;;;;;17.19;78.41;96943.50;5016877;28;20206;-69
2022/08/10 00:30:21;;;;;;;3.83;2.80;;;;;;;17.23;77.81;96942.13;5017156;28;20692;-69
2022/08/10 00:32:49;;;;;;;3.38;2.53;;;;;;;17.26;77.96;96946.22;5016494;28;20206;-69
2022/08/10 00:35:16;;;;;;;4.57;2.80;;;;;;;16.99;78.04;96939.16;5016537;28;20208;-69
2022/08/10 00:37:42;;;;;;;3.13;2.50;;;;;;;16.95;78.49;96931.78;5017177;28;20209;-69
2022/08/10 00:40:11;;;;;;;7.15;3.10;;;;;;;17.05;78.58;96937.53;5017174;28;20551;-69
2022/08/10 00:42:37;;;;;;;3.33;2.58;;;;;;;17.11;78.30;96943.69;5016534;28;20224;-69
2022/08/10 00:45:05;;;;;;;5.93;2.80;;;;;;;17.11;78.39;96938.38;5017984;28;20234;-69
2022/08/10 00:47:31;;;;;;;2.83;2.45;;;;;;;16.96;78.72;96944.88;5018539;28;20201;-69
2022/08/10 00:49:59;;;;;;;2.88;2.47;;;;;;;17.14;78.06;96946.00;5018220;28;20210;-69
2022/08/10 00:52:27;;;;;;;6.68;2.95;;;;;;;17.18;77.60;96944.56;5016876;28;20789;-69
2022/08/10 00:54:54;;;;;;;3.72;3.00;;;;;;;17.07;78.21;96941.66;5017486;28;21119;-69
2022/08/10 00:57:22;;;;;;;3.47;2.50;;;;;;;17.10;78.48;96944.72;5018421;28;20201;-69
2022/08/10 00:59:48;;;;;;;3.15;2.55;;;;;;;17.06;78.24;96940.00;5018135;28;20203;-70
2022/08/10 01:02:15;;;;;;;3.20;2.50;;;;;;;17.18;77.57;96939.22;5017113;28;20202;-69
2022/08/10 01:04:42;;;;;;;4.05;2.95;;;;;;;17.04;77.51;96938.56;5017156;28;20230;-70
2022/08/10 01:07:29;;;;;;;3.05;2.60;;;;;;;17.26;77.41;96940.91;5015032;28;20206;-69
2022/08/10 01:10:06;;;;;;;7.63;2.95;;;;;;;17.21;77.64;96940.69;5018481;28;20562;-70
2022/08/10 01:12:41;;;;;;;3.85;2.88;;;;;;;17.04;78.26;96946.56;5017071;28;20244;-70
2022/08/10 01:15:15;;;;;;;5.32;2.95;;;;;;;16.89;79.07;96944.03;5017169;28;20221;-70
2022/08/10 01:17:49;;;;;;;3.10;2.70;;;;;;;16.99;78.73;96933.00;5017839;28;20260;-69
2022/08/10 01:20:25;;;;;;;3.90;2.72;;;;;;;16.93;78.96;96942.63;5017684;28;20582;-69
2022/08/10 01:23:28;;;;;;;3.55;2.88;;;;;;;17.02;78.23;96935.25;5016820;28;20209;-69
2022/08/10 01:26:18;;;;;;;4.30;3.33;;;;;;;16.74;79.79;96937.22;5015926;28;20225;-69
2022/08/10 01:28:57;;;;;;;5.13;3.40;;;;;;;16.85;79.84;96934.81;5017355;28;20555;-69
2022/08/10 01:31:30;;;;;;;6.10;3.30;;;;;;;16.92;78.96;96933.00;5017020;28;20690;-70
2022/08/10 01:34:02;;;;;;;5.32;3.45;;;;;;;16.88;79.01;96926.41;5016646;28;20226;-69
2022/08/10 01:36:35;;;;;;;5.00;3.25;;;;;;;16.98;78.55;96934.88;5017364;28;20214;-69
2022/08/10 01:39:04;;;;;;;4.32;3.03;;;;;;;17.04;78.32;96930.56;5017446;28;20201;-69
2022/08/10 01:41:39;;;;;;;3.65;3.10;;;;;;;16.98;78.46;96928.69;5017685;28;20221;-69
2022/08/10 01:44:11;;;;;;;4.53;2.83;;;;;;;16.99;78.44;96930.34;5016054;28;20217;-69
2022/08/10 01:46:42;;;;;;;4.60;2.80;;;;;;;16.80;78.68;96928.41;5016587;28;20225;-69
2022/08/10 01:49:12;;;;;;;3.72;2.90;;;;;;;16.71;79.27;96926.94;5017262;28;20209;-69
2022/08/10 01:51:42;;;;;;;4.28;3.15;;;;;;;16.55;79.92;96922.78;5017278;28;20216;-69
2022/08/10 01:54:11;;;;;;;6.10;3.28;;;;;;;16.53;80.48;96924.00;5016278;28;20229;-69
2022/08/10 01:56:42;;;;;;;3.33;3.03;;;;;;;16.59;80.49;96913.38;5017331;28;20198;-69
2022/08/10 01:59:12;;;;;;;4.53;3.17;;;;;;;16.59;80.39;96917.91;5016955;28;20216;-69
2022/08/10 02:01:43;;;;;;;3.78;3.00;;;;;;;16.45;80.55;96924.16;5016970;28;20601;-69
2022/08/10 02:04:14;;;;;;;4.45;3.20;;;;;;;16.31;81.39;96919.78;5016169;28;20709;-70
2022/08/10 02:06:45;;;;;;;3.95;3.03;;;;;;;16.43;81.25;96926.19;5015782;28;20233;-69
2022/08/10 02:09:14;;;;;;;3.70;3.03;;;;;;;16.51;81.02;96926.06;5016434;28;20217;-69
2022/08/10 02:11:42;;;;;;;5.57;3.03;;;;;;;16.34;80.77;96915.91;5017113;28;20212;-70
2022/08/10 02:14:13;;;;;;;4.30;3.10;;;;;;;16.22;81.54;96918.25;5013448;28;20642;-69
2022/08/10 02:16:44;;;;;;;4.32;3.38;;;;;;;16.38;81.03;96918.00;5016960;28;20208;-69
2022/08/10 02:19:14;;;;;;;4.32;3.38;;;;;;;16.30;81.64;96922.66;5016723;28;20210;-69
2022/08/10 02:21:43;;;;;;;4.40;3.60;;;;;;;16.34;80.08;96924.69;5017712;28;20215;-69
2022/08/10 02:24:12;;;;;;;8.13;3.65;;;;;;;16.31;79.42;96919.78;5016492;28;20257;-69
2022/08/10 02:26:39;;;;;;;4.53;3.38;;;;;;;16.38;79.53;96922.47;5020715;28;20221;-69
2022/08/10 02:29:07;;;;;;;7.15;3.78;;;;;;;16.33;79.59;96924.91;5021263;28;20202;-69
2022/08/10 02:31:34;;;;;;;5.35;3.60;;;;;;;16.34;79.71;96916.72;5020636;28;20217;-69
2022/08/10 02:34:03;;;;;;;5.82;3.10;;;;;;;16.51;79.17;96913.56;5019717;28;20229;-69
2022/08/10 02:36:32;;;;;;;5.93;3.40;;;;;;;16.46;79.73;96912.50;5020881;28;20756;-69
2022/08/10 02:39:03;;;;;;;5.22;3.33;;;;;;;16.22;80.48;96918.25;5020649;28;20202;-69
2022/08/10 02:41:34;;;;;;;5.63;3.42;;;;;;;15.94;81.75;96909.47;5020631;28;20260;-69
2022/08/10 02:44:05;;;;;;;4.50;3.35;;;;;;;15.82;83.16;96915.50;5019771;28;20222;-69
2022/08/10 02:46:39;;;;;;;6.35;3.38;;;;;;;15.83;83.15;96906.53;5019832;28;20229;-69
2022/08/10 02:49:16;;;;;;;5.63;3.55;;;;;;;15.72;83.81;96908.88;5020464;28;20217;-69
2022/08/10 02:51:46;;;;;;;4.30;3.50;;;;;;;15.80;83.59;96901.59;5021427;28;20224;-69
2022/08/10 02:54:20;;;;;;;4.20;3.28;;;;;;;15.80;83.52;96901.59;5019438;28;20233;-69
2022/08/10 02:56:53;;;;;;;4.18;3.30;;;;;;;15.76;83.80;96902.16;5019774;28;20201;-69
2022/08/10 02:59:25;;;;;;;6.05;3.30;;;;;;;15.54;84.76;96906.72;5020441;28;20217;-69
2022/08/10 03:01:55;;;;;;;4.28;3.30;;;;;;;15.49;85.04;96905.63;5020920;28;20209;-69
2022/08/10 03:04:28;;;;;;;5.60;3.50;;;;;;;15.30;86.16;96909.75;5019117;28;20709;-69
2022/08/10 03:06:56;;;;;;;6.90;3.60;;;;;;;15.39;85.35;96902.50;5017195;28;20229;-71
2022/08/10 03:09:25;;;;;;;5.18;3.55;;;;;;;15.38;85.91;96906.16;5019906;28;20208;-71
2022/08/10 03:11:53;;;;;;;5.07;3.83;;;;;;;15.51;85.23;96906.25;5020553;28;20586;-71
2022/08/10 03:14:21;;;;;;;6.53;4.07;;;;;;;15.55;84.79;96912.84;5019803;28;20237;-71
2022/08/10 03:16:50;;;;;;;4.95;3.40;;;;;;;15.54;84.72;96905.88;5021132;28;20667;-72
2022/08/10 03:19:19;;;;;;;3.95;3.45;;;;;;;15.74;83.44;96907.69;5020309;28;20214;-71
2022/08/10 03:21:49;;;;;;;4.72;3.35;;;;;;;15.81;83.14;96897.09;5021422;28;20741;-71
2022/08/10 03:24:21;;;;;;;5.05;3.75;;;;;;;15.67;83.23;96905.97;5020814;28;20272;-71
2022/08/10 03:26:48;;;;;;;4.72;3.75;;;;;;;15.54;83.62;96908.53;5019946;28;20280;-71
2022/08/10 03:29:17;;;;;;;5.75;3.40;;;;;;;15.47;84.40;96905.81;5020657;28;20213;-71
2022/08/10 03:31:43;;;;;;;3.85;3.33;;;;;;;15.59;83.64;96908.78;5021384;28;20210;-71
2022/08/10 03:34:10;;;;;;;3.85;3.38;;;;;;;15.62;82.85;96909.22;5019261;28;20733;-71
2022/08/10 03:36:37;;;;;;;4.18;3.30;;;;;;;15.25;83.96;96909.50;5019724;28;20256;-71
2022/08/10 03:39:04;;;;;;;5.75;3.55;;;;;;;15.27;85.06;96914.59;5020369;28;20697;-71
2022/08/10 03:41:35;;;;;;;4.20;3.15;;;;;;;15.16;85.78;96915.09;5020035;28;20206;-71
2022/08/10 03:44:04;;;;;;;5.90;3.70;;;;;;;15.20;86.10;96905.75;5018626;28;20232;-71
2022/08/10 03:46:33;;;;;;;4.50;3.30;;;;;;;15.41;85.08;96905.75;5019714;28;20622;-71
2022/08/10 03:49:02;;;;;;;5.32;3.70;;;;;;;15.49;85.01;96916.25;5020202;28;20201;-71
2022/08/10 03:51:29;;;;;;;4.68;3.70;;;;;;;15.53;83.98;96907.72;5019503;28;20268;-71
2022/08/10 03:53:56;;;;;;;10.75;3.47;;;;;;;15.39;84.33;96908.63;5020662;28;20229;-70
2022/08/10 03:56:25;;;;;;;7.70;3.60;;;;;;;15.42;84.58;96908.22;5020155;28;20202;-70
2022/08/10 03:58:51;;;;;;;4.88;3.58;;;;;;;15.35;84.77;96906.50;5021451;28;20217;-71
2022/08/10 04:01:19;;;;;;;4.97;3.42;;;;;;;15.51;84.28;96908.91;5020959;28;20210;-71
2022/08/10 04:03:45;;;;;;;8.63;3.85;;;;;;;15.35;84.42;96909.16;5020176;28;20226;-70
2022/08/10 04:06:12;;;;;;;4.15;3.47;;;;;;;15.29;84.11;96912.59;5017841;28;21048;-71
2022/08/10 04:08:40;;;;;;;5.25;3.63;;;;;;;15.44;83.92;96919.50;5020283;28;20209;-70
2022/08/10 04:11:07;;;;;;;10.13;3.95;;;;;;;15.34;83.79;96918.16;5020571;28;20354;-71
2022/08/10 04:13:35;;;;;;;15.60;4.15;;;;;;;15.45;83.45;96926.47;5020243;28;21016;-70
2022/08/10 04:16:02;;;;;;;7.70;3.70;;;;;;;15.40;83.45;96925.34;5020269;28;20206;-70
2022/08/10 04:18:28;;;;;;;10.27;4.00;;;;;;;15.41;82.79;96922.53;5020550;28;20213;-70
2022/08/10 04:20:59;;;;;;;9.15;4.28;;;;;;;15.60;82.72;96915.75;5020192;28;20244;-71
2022/08/10 04:23:28;;;;;;;4.03;3.28;;;;;;;15.83;81.66;96924.31;5017933;28;21100;-70
2022/08/10 04:25:56;;;;;;;8.82;3.92;;;;;;;15.98;81.33;96920.56;5019709;28;20602;-70
2022/08/10 04:28:23;;;;;;;9.15;3.60;;;;;;;15.88;81.68;96920.91;5020073;28;20198;-70
2022/08/10 04:30:53;;;;;;;6.10;3.65;;;;;;;15.96;81.19;96923.41;5019737;28;20217;-71
2022/08/10 04:33:23;;;;;;;4.78;3.50;;;;;;;16.00;80.90;96923.84;5019120;28;20764;-70
2022/08/10 04:35:51;;;;;;;6.95;3.55;;;;;;;16.09;80.25;96928.81;5020032;28;20213;-71
2022/08/10 04:38:18;;;;;;;6.85;3.45;;;;;;;16.21;80.07;96929.09;5019254;28;20210;-71
2022/08/10 04:40:46;;;;;;;6.65;3.28;;;;;;;16.33;79.38;96933.72;5020131;28;20205;-70
2022/08/10 04:43:13;;;;;;;4.28;3.15;;;;;;;16.47;78.60;96934.59;5019264;28;20221;-70
2022/08/10 04:45:40;;;;;;;8.57;3.05;;;;;;;16.29;79.12;96934.28;5019613;28;20205;-71
2022/08/10 04:48:08;;;;;;;4.80;3.40;;;;;;;16.40;79.00;96937.22;5018818;28;20202;-71
2022/08/10 04:50:35;;;;;;;7.18;3.38;;;;;;;16.45;78.79;96934.81;5020274;28;20209;-71
2022/08/10 04:53:01;;;;;;;4.93;3.47;;;;;;;16.30;78.62;96936.75;5018913;28;20205;-71
2022/08/10 04:55:28;;;;;;;5.57;3.17;;;;;;;16.45;79.08;96937.47;5021178;28;20620;-71
2022/08/10 04:57:54;;;;;;;5.72;3.63;;;;;;;16.53;78.83;96935.47;5021018;28;20206;-71
2022/08/10 05:00:21;;;;;;;3.97;3.20;;;;;;;16.63;78.33;96937.78;5020306;28;20213;-70
2022/08/10 05:02:47;;;;;;;3.88;3.10;;;;;;;16.88;77.27;96942.41;5020036;28;20237;-71
2022/08/10 05:05:15;;;;;;;9.98;2.97;;;;;;;17.35;77.22;96935.19;5016466;28;20210;-71
2022/08/10 05:07:41;;;;;;;5.85;3.50;;;;;;;17.48;76.03;96939.75;5018092;28;20228;-71
2022/08/10 05:10:08;;;;;;;6.65;3.45;;;;;;;17.79;75.37;96938.97;5018321;28;20213;-71
2022/08/10 05:12:36;;;;;;;8.05;3.55;;;;;;;17.91;74.55;96936.50;5018041;28;21108;-70
2022/08/10 05:15:03;;;;;;;7.40;3.25;;;;;;;17.90;74.47;96932.19;5017904;28;20222;-70
2022/08/10 05:17:30;;;;;;;8.45;3.25;;;;;;;17.95;74.26;96937.72;5019136;28;20213;-70
2022/08/10 05:19:56;;;;;;;4.63;3.03;;;;;;;18.05;74.05;96940.78;5018601;28;20208;-71
2022/08/10 05:22:24;;;;;;;4.85;3.08;;;;;;;18.12;72.95;96941.63;5018406;28;20205;-70
2022/08/10 05:24:51;;;;;;;9.40;3.08;;;;;;;18.15;72.63;96943.88;5018833;28;20230;-71
2022/08/10 05:27:17;;;;;;;4.80;2.95;;;;;;;18.33;71.95;96941.41;5017712;28;20221;-71
2022/08/10 05:29:44;;;;;;;3.58;2.90;;;;;;;18.52;71.79;96939.53;5017922;28;20240;-71
2022/08/10 05:32:10;;;;;;;6.60;2.90;;;;;;;18.65;71.70;96936.84;5019393;28;20217;-72
2022/08/10 05:34:37;;;;;;;7.30;3.10;;;;;;;18.80;71.34;96950.75;5017128;28;20232;-71
2022/08/10 05:37:04;;;;;;;4.30;3.20;;;;;;;18.97;69.48;96951.94;5018336;28;20209;-70
2022/08/10 05:39:34;;;;;;;3.97;2.83;;;;;;;19.24;69.37;96950.81;5018782;28;20804;-72
2022/08/10 05:42:01;;;;;;;4.28;3.22;;;;;;;19.08;69.06;96951.28;5018645;28;20210;-72
2022/08/10 05:44:28;;;;;;;3.38;2.53;;;;;;;19.26;68.72;96951.44;5017762;28;20230;-72
2022/08/10 05:46:55;;;;;;;7.10;2.90;;;;;;;19.13;69.02;96951.47;5016808;28;20232;-71
2022/08/10 05:49:21;;;;;;;6.03;2.95;;;;;;;19.21;68.90;96953.91;5017313;28;20217;-71
2022/08/10 05:51:48;;;;;;;5.00;2.47;;;;;;;19.03;68.18;96943.06;5018169;28;20216;-70
2022/08/10 05:54:15;;;;;;;3.20;2.08;;;;;;;19.28;68.61;96947.47;5016660;28;20230;-70
2022/08/10 05:56:44;;;;;;;4.82;2.45;;;;;;;19.50;69.34;96937.28;5017883;28;20348;-71
2022/08/10 05:59:12;;;;;;;3.55;2.47;;;;;;;19.44;69.33;96943.53;5017322;28;20587;-71
2022/08/10 06:01:42;;;;;;;5.15;2.55;;;;;;;19.75;65.90;96942.47;5020951;28;20198;-71
2022/08/10 06:04:11;;;;;;;6.65;2.95;;;;;;;19.67;66.92;96933.91;5020820;28;20229;-72
2022/08/10 06:06:38;;;;;;;2.95;2.58;;;;;;;19.92;64.20;96932.09;5017815;28;20585;-72
2022/08/10 06:09:07;;;;;;;2.95;2.40;;;;;;;19.95;64.90;96935.16;5020775;28;20662;-70
2022/08/10 06:11:37;;;;;;;6.47;2.40;;;;;;;19.93;63.95;96934.53;5021664;28;20217;-70
2022/08/10 06:16:52;;;;;;;4.70;2.38;;;;;;;19.91;64.17;96936.63;5021055;28;20577;-71
2022/08/10 06:19:19;;;;;;;3.42;2.45;;;;;;;20.05;63.66;96926.63;5021276;28;20201;-72
2022/08/10 06:21:46;;;;;;;5.72;2.60;;;;;;;20.02;63.82;96933.25;5021154;28;20225;-70
2022/08/10 06:24:16;;;;;;;4.50;2.30;;;;;;;20.14;64.12;96927.97;5021421;28;20229;-71
2022/08/10 06:26:42;;;;;;;6.22;2.22;;;;;;;20.23;63.25;96935.53;5021743;28;20221;-72
2022/08/10 06:29:13;;;;;;;2.67;2.40;;;;;;;20.45;63.02;96937.56;5021182;28;20206;-71
2022/08/10 06:31:43;;;;;;;2.70;2.03;;;;;;;20.53;62.94;96933.78;5019011;28;20205;-71
2022/08/10 06:34:11;;;;;;;3.47;1.92;;;;;;;20.38;62.01;96934.16;5021496;28;20226;-71
2022/08/10 06:36:41;;;;;;;3.05;2.28;;;;;;;20.30;61.26;96928.25;5021170;28;20692;-70
2022/08/10 06:39:08;;;;;;;3.42;2.10;;;;;;;20.31;63.55;96935.25;5021892;28;20702;-71
2022/08/10 06:41:38;;;;;;;4.10;2.05;;;;;;;20.40;62.70;96936.59;5023003;28;20217;-72
2022/08/10 06:44:09;;;;;;;4.93;2.13;;;;;;;20.53;62.80;96931.94;5021076;28;20411;-71
2022/08/10 06:46:43;;;;;;;3.33;2.08;;;;;;;20.64;62.19;96927.72;5020835;28;20229;-69
2022/08/10 06:49:11;;;;;;;4.95;2.00;;;;;;;20.72;60.87;96930.09;5022030;28;20206;-71
2022/08/10 06:51:39;;;;;;;3.85;2.60;;;;;;;20.71;62.71;96923.94;5022804;28;20213;-70
2022/08/10 06:54:11;;;;;;;2.55;1.95;;;;;;;20.84;61.50;96929.97;5021155;28;20229;-71
2022/08/10 06:56:41;;;;;;;4.80;2.00;;;;;;;21.01;60.84;96936.34;5022100;28;20260;-70
2022/08/10 06:59:10;;;;;;;5.40;2.20;;;;;;;21.20;60.70;96937.19;5021899;28;20209;-71
2022/08/10 07:01:41;;;;;;;6.18;2.00;;;;;;;21.30;61.29;96938.28;5021998;28;20264;-72
2022/08/10 07:04:11;;;;;;;3.05;1.77;;;;;;;21.26;58.41;96936.28;5021451;28;20237;-71
2022/08/10 07:06:42;;;;;;;2.75;1.60;;;;;;;21.29;58.08;96936.63;5019359;28;20217;-71
2022/08/10 07:09:10;;;;;;;3.25;1.80;;;;;;;21.31;57.41;96926.50;5021400;28;20202;-71
2022/08/10 07:11:38;;;;;;;2.17;1.73;;;;;;;21.55;58.64;96933.63;5020483;28;20202;-73
2022/08/10 07:14:06;;;;;;;5.22;2.00;;;;;;;21.67;58.37;96926.44;5020323;28;20218;-70
2022/08/10 07:16:35;;;;;;;2.85;2.15;;;;;;;21.68;59.61;96926.19;5021516;28;20206;-72
2022/08/10 07:19:04;;;;;;;7.50;2.50;;;;;;;21.88;56.83;96925.91;5021693;28;20678;-72
2022/08/10 07:21:32;;;;;;;2.83;2.05;;;;;;;21.94;57.42;96928.47;5020997;28;20627;-71
2022/08/10 07:23:59;;;;;;;3.83;1.90;;;;;;;21.98;57.33;96923.47;5021146;28;20229;-71
2022/08/10 07:26:27;;;;;;;5.22;2.10;;;;;;;21.97;56.61;96933.41;5021371;28;20213;-71
2022/08/10 07:28:55;;;;;;;3.67;2.20;;;;;;;22.03;56.18;96920.91;5021120;28;20202;-70
2022/08/10 07:31:22;;;;;;;2.00;1.67;;;;;;;22.02;56.10;96922.78;5021303;28;20210;-70
2022/08/10 07:33:51;;;;;;;2.60;1.90;;;;;;;22.24;55.34;96915.81;5020472;28;20472;-70
2022/08/10 07:36:22;;;;;;;2.88;1.60;;;;;;;22.42;55.94;96921.91;5020955;28;20221;-70
2022/08/10 07:38:51;;;;;;;2.72;1.77;;;;;;;22.37;55.21;96923.66;5021669;28;20202;-71
2022/08/10 07:41:21;;;;;;;3.72;1.90;;;;;;;22.56;54.98;96926.00;5020687;28;20621;-71
2022/08/10 07:43:51;;;;;;;9.35;2.10;;;;;;;22.75;56.47;96927.50;5019969;28;20226;-72
2022/08/10 07:46:21;;;;;;;3.90;2.05;;;;;;;22.90;54.51;96919.78;5020538;28;20810;-71
2022/08/10 07:48:53;;;;;;;3.60;2.00;;;;;;;22.83;53.31;96917.19;5020162;28;20221;-72
2022/08/10 07:51:23;;;;;;;2.63;1.80;;;;;;;23.02;54.39;96917.88;5020231;28;20202;-72
2022/08/10 07:53:53;;;;;;;3.65;1.63;;;;;;;23.13;53.21;96925.94;5020631;28;20222;-70
2022/08/10 07:56:24;;;;;;;6.28;1.80;;;;;;;23.19;53.78;96916.88;5021618;28;20849;-72
2022/08/10 07:58:54;;;;;;;3.13;2.10;;;;;;;23.23;52.89;96919.94;5021886;28;20202;-72
2022/08/10 08:01:26;;;;;;;2.15;1.90;;;;;;;23.42;53.39;96920.34;5020810;28;20204;-72
2022/08/10 08:03:55;;;;;;;4.82;1.67;;;;;;;23.39;51.35;96920.78;5018761;28;20230;-71
2022/08/10 08:06:23;;;;;;;3.38;1.67;;;;;;;23.30;51.79;96918.72;5017398;28;20206;-71
2022/08/10 08:08:50;;;;;;;3.90;1.60;;;;;;;23.52;52.91;96909.78;5020416;28;20262;-71
2022/08/10 08:11:19;;;;;;;2.58;1.60;;;;;;;23.56;49.90;96910.91;5020097;28;20239;-72
2022/08/10 08:13:47;;;;;;;4.78;1.90;;;;;;;23.62;49.80;96909.94;5019319;28;20713;-72
2022/08/10 08:16:14;;;;;;;6.10;2.05;;;;;;;23.55;51.96;96914.66;5019735;28;20206;-71
2022/08/10 08:18:41;;;;;;;5.18;1.70;;;;;;;23.67;51.76;96910.03;5020059;28;20198;-71
2022/08/10 08:21:09;;;;;;;2.80;1.92;;;;;;;23.84;50.87;96919.00;5020494;28;20212;-72
2022/08/10 08:23:38;;;;;;;4.00;1.70;;;;;;;24.17;51.35;96910.91;5018857;28;20226;-71
2022/08/10 08:26:06;;;;;;;4.30;1.88;;;;;;;24.02;50.40;96916.88;5018680;28;21280;-71
2022/08/10 08:28:34;;;;;;;3.10;1.70;;;;;;;24.14;49.17;96911.41;5019498;28;20218;-71
2022/08/10 08:31:02;;;;;;;2.78;1.88;;;;;;;24.17;48.12;96913.59;5019241;28;20237;-71
2022/08/10 08:33:30;;;;;;;5.88;1.70;;;;;;;23.97;46.94;96914.09;5018148;28;20246;-72
2022/08/10 08:35:57;;;;;;;6.70;2.05;;;;;;;24.22;47.21;96911.00;5019289;28;20206;-72
2022/08/10 08:38:25;;;;;;;2.50;1.67;;;;;;;24.17;48.72;96913.59;5018940;28;20564;-71
2022/08/10 08:41:00;;;;;;;2.40;1.58;;;;;;;24.29;46.15;96909.78;5020081;28;20294;-71
2022/08/10 08:43:43;;;;;;;2.85;1.58;;;;;;;24.41;46.65;96917.81;5018533;28;20217;-70
2022/08/10 08:46:37;;;;;;;2.35;1.60;;;;;;;24.60;45.32;96915.44;5019104;28;20198;-71
2022/08/10 08:49:20;;;;;;;2.00;1.60;;;;;;;24.81;45.30;96916.53;5019367;28;20210;-71
2022/08/10 08:51:57;;;;;;;5.13;1.60;;;;;;;24.78;47.80;96907.06;5018751;28;20190;-70
2022/08/10 08:54:36;;;;;;;6.28;1.83;;;;;;;24.93;46.92;96918.03;5016740;28;21023;-70
2022/08/10 08:57:13;;;;;;;15.93;1.83;;;;;;;24.78;44.98;96922.41;5017430;28;20205;-70
2022/08/10 08:59:57;;;;;;;5.47;1.60;;;;;;;24.68;43.86;96923.09;5017940;28;20692;-69
2022/08/10 09:02:39;;;;;;;2.55;1.80;;;;;;;24.90;44.74;96915.84;5016929;28;20587;-69
2022/08/10 09:05:22;;;;;;;4.20;1.63;;;;;;;25.07;46.82;96916.63;5014609;28;20312;-69
2022/08/10 09:08:02;;;;;;;3.88;1.58;;;;;;;25.08;44.63;96920.16;5017407;28;20233;-69
2022/08/10 09:10:37;;;;;;;9.95;1.63;;;;;;;25.25;43.68;96919.00;5017431;28;20209;-69
2022/08/10 09:13:13;;;;;;;4.35;2.10;;;;;;;25.30;45.41;96916.38;5016729;28;20629;-69
2022/08/10 09:15:46;;;;;;;5.10;1.30;;;;;;;25.27;44.34;96911.47;5018135;28;20197;-69
2022/08/10 09:18:20;;;;;;;2.55;1.55;;;;;;;25.09;43.36;96914.50;5017078;28;20198;-69
2022/08/10 09:20:51;;;;;;;1.85;1.60;;;;;;;25.10;44.70;96920.69;5016869;28;20268;-69
2022/08/10 09:23:28;;;;;;;5.30;1.85;;;;;;;25.24;43.77;96918.19;5016762;28;20232;-69
2022/08/10 09:26:01;;;;;;;4.07;1.60;;;;;;;25.40;43.21;96911.91;5016905;28;20202;-69
2022/08/10 09:28:36;;;;;;;5.82;1.77;;;;;;;25.36;43.62;96915.38;5016068;28;20588;-69
2022/08/10 09:31:05;;;;;;;1.92;1.55;;;;;;;25.40;44.29;96911.09;5016753;28;20291;-69
2022/08/10 09:33:44;;;;;;;2.38;1.63;;;;;;;25.68;43.97;96900.06;5016078;28;20596;-70
2022/08/10 09:36:22;;;;;;;4.45;1.50;;;;;;;25.53;42.91;96906.09;5016404;28;20208;-69
2022/08/10 09:39:02;;;;;;;1.67;1.35;;;;;;;25.41;43.15;96912.72;5017242;28;20741;-69
2022/08/10 09:41:39;;;;;;;2.95;1.63;;;;;;;25.48;41.70;96906.06;5016997;28;20206;-69
2022/08/10 09:44:14;;;;;;;3.25;1.25;;;;;;;25.72;45.02;96898.50;5016864;28;20571;-69
2022/08/10 09:47:05;;;;;;;3.97;1.67;;;;;;;25.70;43.92;96900.59;5017246;28;20205;-70
2022/08/10 09:49:36;;;;;;;2.25;1.50;;;;;;;26.00;41.64;96897.13;5016587;28;20225;-69
2022/08/10 09:52:14;;;;;;;3.13;1.80;;;;;;;25.93;40.36;96901.97;5016711;28;20287;-69
2022/08/10 09:54:52;;;;;;;2.70;1.60;;;;;;;25.79;39.79;96901.81;5016533;28;20225;-69
2022/08/10 09:57:25;;;;;;;2.10;1.58;;;;;;;26.01;39.63;96904.19;5017233;28;20619;-69
2022/08/10 10:00:01;;;;;;;3.05;1.65;;;;;;;26.01;40.65;96900.69;5016631;28;20209;-69
2022/08/10 10:02:38;;;;;;;2.55;1.50;;;;;;;26.49;41.47;96893.25;5016323;28;21086;-70
2022/08/10 10:05:13;;;;;;;1.92;1.30;;;;;;;26.10;40.10;96886.44;5013893;28;20252;-69
2022/08/10 10:07:49;;;;;;;1.75;1.40;;;;;;;26.35;40.82;96886.66;5017530;28;20228;-69
2022/08/10 10:10:20;;;;;;;2.30;1.35;;;;;;;26.52;39.84;96887.31;5016819;28;20210;-69
2022/08/10 10:12:53;;;;;;;4.72;1.83;;;;;;;26.39;38.52;96895.06;5016640;28;20202;-69
2022/08/10 10:15:31;;;;;;;3.47;1.23;;;;;;;26.43;38.13;96883.47;5017155;28;20237;-70
2022/08/10 10:18:11;;;;;;;2.88;1.48;;;;;;;26.30;38.63;96885.75;5017637;28;20201;-70
2022/08/10 10:20:42;;;;;;;2.83;1.52;;;;;;;26.51;39.79;96882.97;5015680;28;20205;-70
2022/08/10 10:23:18;;;;;;;4.80;1.63;;;;;;;26.81;40.53;96877.78;5015192;28;20202;-70
2022/08/10 10:25:54;;;;;;;7.95;2.10;;;;;;;26.70;39.57;96865.25;5017337;28;20205;-70
2022/08/10 10:28:35;;;;;;;1.35;1.10;;;;;;;26.83;38.78;96870.19;5016050;28;20221;-70
2022/08/10 10:31:11;;;;;;;2.85;1.40;;;;;;;26.65;37.57;96867.94;5015271;28;20249;-70
2022/08/10 10:33:48;;;;;;;2.47;1.25;;;;;;;26.82;37.59;96869.38;5016023;28;20233;-70
2022/08/10 10:36:17;;;;;;;2.30;1.27;;;;;;;26.73;38.31;96864.72;5015400;28;20202;-70
2022/08/10 10:38:44;;;;;;;6.20;1.23;;;;;;;26.86;38.08;96869.66;5015430;28;20209;-71
2022/08/10 10:41:19;;;;;;;3.60;1.60;;;;;;;26.90;37.72;96873.50;5016390;28;20202;-70
2022/08/10 10:43:55;;;;;;;3.03;1.40;;;;;;;26.93;37.44;96878.38;5015923;28;20306;-70
2022/08/10 10:46:37;;;;;;;4.95;1.45;;;;;;;26.83;36.96;96859.38;5017567;28;20666;-70
2022/08/10 10:49:11;;;;;;;3.03;1.30;;;;;;;26.79;37.97;96872.59;5019314;28;20276;-70
2022/08/10 10:51:44;;;;;;;3.83;1.35;;;;;;;26.93;35.83;96862.94;5018858;28;20237;-70
2022/08/10 10:54:27;;;;;;;1.40;1.30;;;;;;;27.06;38.21;96865.19;5018292;28;20240;-70
2022/08/10 10:57:01;;;;;;;3.60;1.52;;;;;;;27.08;36.36;96869.25;5019575;28;20749;-70
2022/08/10 10:59:37;;;;;;;3.35;1.30;;;;;;;26.98;35.93;96860.28;5019774;28;20206;-70
2022/08/10 11:02:31;;;;;;;2.10;1.45;;;;;;;27.16;35.26;96857.94;5019366;28;20197;-70
2022/08/10 11:05:09;;;;;;;4.75;1.27;;;;;;;27.26;36.09;96852.53;5017786;28;20229;-70
2022/08/10 11:07:45;;;;;;;3.83;1.48;;;;;;;27.12;34.85;96859.53;5019326;28;21039;-70
2022/08/10 11:10:15;;;;;;;4.28;1.55;;;;;;;27.39;35.47;96854.75;5019549;28;20209;-70
2022/08/10 11:12:46;;;;;;;3.70;1.33;;;;;;;27.61;36.68;96847.25;5018205;28;20205;-70
2022/08/10 11:15:21;;;;;;;6.70;1.88;;;;;;;27.45;36.19;96845.56;5019774;28;20226;-70
2022/08/10 11:17:55;;;;;;;4.65;1.50;;;;;;;27.48;36.14;96849.63;5018793;28;20674;-70
2022/08/10 11:20:26;;;;;;;3.95;1.50;;;;;;;27.43;36.21;96845.03;5018943;28;20214;-70
2022/08/10 11:23:02;;;;;;;2.60;1.40;;;;;;;27.87;36.25;96847.00;5018018;28;20198;-71
2022/08/10 11:25:31;;;;;;;4.65;1.40;;;;;;;28.02;36.42;96851.63;5019200;28;20205;-71
2022/08/10 11:28:03;;;;;;;5.13;1.30;;;;;;;28.16;35.78;96847.31;5019576;28;20257;-71
2022/08/10 11:30:39;;;;;;;2.25;1.35;;;;;;;27.93;33.70;96859.47;5018221;28;20245;-70
2022/08/10 11:33:16;;;;;;;4.60;1.42;;;;;;;27.90;34.11;96840.22;5017758;28;20299;-70
2022/08/10 11:35:48;;;;;;;1.98;1.33;;;;;;;27.93;34.62;96840.50;5017570;28;20530;-70
2022/08/10 11:38:25;;;;;;;2.92;1.20;;;;;;;28.09;35.21;96844.03;5017800;28;20328;-70
2022/08/10 11:41:01;;;;;;;1.73;1.30;;;;;;;28.16;34.32;96844.59;5018411;28;21120;-70
2022/08/10 11:43:29;;;;;;;1.67;1.35;;;;;;;28.14;34.34;96835.91;5018858;28;20225;-70
2022/08/10 11:46:11;;;;;;;3.72;1.13;;;;;;;28.40;35.67;96838.34;5019367;28;20210;-71
2022/08/10 11:48:46;;;;;;;2.33;1.27;;;;;;;28.22;32.46;96840.78;5019018;28;20236;-70
2022/08/10 11:51:19;;;;;;;3.25;1.00;;;;;;;27.87;32.03;96841.56;5018897;28;20216;-71
2022/08/10 11:53:53;;;;;;;1.83;1.20;;;;;;;27.62;32.05;96838.03;5017492;28;20259;-70